Time;durP1;ratioP1;P1;durP2;ratioP2;P2;SDS_P1;SDS_P2;PMS_P1;PMS_P2;Temp;Humidity;BMP_temperature;BMP_pressure;BME280_temperature;BME280_humidity;BME280_pressure;Samples;Min_cycle;Max_cycle;Signal;HPM_P1;HPM_P2
2024/03/03 00:00:51;;;;;;;0.00;0.00;;;11.20;99.90;;;;;;5024082;28;20200;-61
2024/03/03 00:03:18;;;;;;;0.40;0.10;;;11.00;99.90;;;;;;5051744;28;20567;-61
2024/03/03 00:05:45;;;;;;;0.10;0.00;;;11.10;99.90;;;;;;5050712;28;20677;-61
2024/03/03 00:08:12;;;;;;;0.10;0.10;;;11.00;99.90;;;;;;5046829;28;20213;-61
2024/03/03 00:10:39;;;;;;;0.63;0.10;;;10.90;99.90;;;;;;5031464;28;20251;-61
2024/03/03 00:13:07;;;;;;;0.10;0.10;;;10.80;99.90;;;;;;5050202;28;20198;-61
2024/03/03 00:15:34;;;;;;;0.17;0.00;;;10.80;99.90;;;;;;5051316;28;20221;-62
2024/03/03 00:18:03;;;;;;;0.10;0.10;;;10.80;99.90;;;;;;5048662;28;20208;-62
2024/03/03 00:20:30;;;;;;;0.10;0.10;;;10.90;99.90;;;;;;5031338;28;20569;-62
2024/03/03 00:22:57;;;;;;;0.20;0.00;;;11.00;99.90;;;;;;5049491;28;20734;-62
2024/03/03 00:25:24;;;;;;;0.40;0.20;;;11.00;99.90;;;;;;5047750;28;20260;-62
2024/03/03 00:27:50;;;;;;;1.07;0.10;;;11.00;99.90;;;;;;5041802;28;20204;-61
2024/03/03 00:30:19;;;;;;;0.10;0.10;;;11.10;99.90;;;;;;5030249;28;21049;-61
2024/03/03 00:32:46;;;;;;;0.10;0.10;;;10.90;99.90;;;;;;5023055;28;20265;-64
2024/03/03 00:35:14;;;;;;;0.40;0.10;;;10.90;99.90;;;;;;5050112;28;20220;-61
2024/03/03 00:37:41;;;;;;;0.77;0.10;;;11.00;99.90;;;;;;5048523;28;20240;-62
2024/03/03 00:40:09;;;;;;;0.10;0.10;;;10.90;99.90;;;;;;5026313;28;20270;-62
2024/03/03 00:42:36;;;;;;;0.37;0.10;;;10.80;99.90;;;;;;5031166;28;20200;-61
2024/03/03 00:45:03;;;;;;;0.70;0.00;;;10.80;99.90;;;;;;5029328;28;20210;-62
2024/03/03 00:47:35;;;;;;;0.00;0.00;;;10.80;99.90;;;;;;5045519;28;20201;-62
2024/03/03 00:50:02;;;;;;;0.00;0.00;;;10.80;99.90;;;;;;5051326;28;20221;-61
2024/03/03 00:52:29;;;;;;;0.23;0.10;;;10.80;99.90;;;;;;5050983;28;20266;-61
2024/03/03 00:54:57;;;;;;;1.80;0.10;;;10.90;99.90;;;;;;5049335;28;20216;-61
2024/03/03 00:57:24;;;;;;;2.40;0.83;;;10.80;99.90;;;;;;5025519;28;20227;-62
2024/03/03 00:59:50;;;;;;;0.10;0.00;;;10.80;99.90;;;;;;5040379;28;20255;-62
2024/03/03 01:02:17;;;;;;;0.43;0.00;;;10.70;99.90;;;;;;5050939;28;20251;-61
2024/03/03 01:04:46;;;;;;;0.60;0.10;;;10.80;99.90;;;;;;5052312;28;20259;-62
2024/03/03 01:07:13;;;;;;;0.37;0.10;;;10.90;99.90;;;;;;5054392;28;20208;-62
2024/03/03 01:09:40;;;;;;;0.17;0.17;;;10.90;99.90;;;;;;5037373;28;20221;-62
2024/03/03 01:12:07;;;;;;;0.10;0.10;;;11.00;99.90;;;;;;5045772;28;20264;-62
2024/03/03 01:14:34;;;;;;;0.40;0.00;;;10.80;99.90;;;;;;5053596;28;20204;-61
2024/03/03 01:17:01;;;;;;;0.30;0.00;;;10.80;99.90;;;;;;5054167;28;20208;-62
2024/03/03 01:19:28;;;;;;;0.00;0.00;;;10.70;99.90;;;;;;5054353;28;20228;-62
2024/03/03 01:21:57;;;;;;;0.37;0.10;;;10.60;99.90;;;;;;5032351;28;20205;-62
2024/03/03 01:24:24;;;;;;;0.20;0.00;;;10.50;99.90;;;;;;5027267;28;20200;-61
2024/03/03 01:26:51;;;;;;;1.50;0.30;;;10.40;99.90;;;;;;5026422;28;20229;-62
2024/03/03 01:29:18;;;;;;;1.17;0.10;;;10.30;99.90;;;;;;5034200;28;20230;-62
2024/03/03 01:31:45;;;;;;;0.00;0.00;;;10.30;99.90;;;;;;5034005;28;20637;-62
2024/03/03 01:34:12;;;;;;;0.93;0.10;;;10.30;99.90;;;;;;5024050;28;20207;-62
2024/03/03 01:36:39;;;;;;;0.10;0.10;;;10.40;99.90;;;;;;5028830;28;20701;-62
2024/03/03 01:39:09;;;;;;;0.00;0.00;;;10.40;99.90;;;;;;5033881;28;20305;-62
2024/03/03 01:41:36;;;;;;;0.00;0.00;;;10.30;99.90;;;;;;5014311;28;20203;-62
2024/03/03 01:44:03;;;;;;;0.10;0.10;;;10.40;99.90;;;;;;5011751;28;20258;-62
2024/03/03 01:46:30;;;;;;;0.10;0.10;;;10.40;99.90;;;;;;5021227;28;20191;-62
2024/03/03 01:48:57;;;;;;;0.10;0.10;;;10.40;99.90;;;;;;5031530;28;20720;-62
2024/03/03 01:51:24;;;;;;;0.30;0.20;;;10.30;99.90;;;;;;5033868;28;20266;-62
2024/03/03 01:53:53;;;;;;;0.00;0.00;;;10.30;99.90;;;;;;5040633;28;20198;-62
2024/03/03 01:56:24;;;;;;;0.10;0.10;;;10.20;99.90;;;;;;5040182;28;20640;-63
2024/03/03 01:58:52;;;;;;;0.00;0.00;;;10.10;99.90;;;;;;5031762;28;20311;-62
2024/03/03 02:01:21;;;;;;;0.00;0.00;;;10.20;99.90;;;;;;5026438;28;20255;-62
2024/03/03 02:03:50;;;;;;;1.07;0.10;;;10.30;99.90;;;;;;5033487;28;20209;-62
2024/03/03 02:06:20;;;;;;;0.27;0.27;;;10.50;99.90;;;;;;5032677;28;20208;-62
2024/03/03 02:08:49;;;;;;;0.60;0.20;;;10.60;99.90;;;;;;5033642;28;20240;-62
2024/03/03 02:11:16;;;;;;;0.60;0.10;;;10.80;99.90;;;;;;5032993;28;20280;-62
2024/03/03 02:13:44;;;;;;;0.10;0.00;;;10.80;99.90;;;;;;5029098;28;20239;-62
2024/03/03 02:16:11;;;;;;;0.47;0.07;;;10.90;99.90;;;;;;5031568;28;20225;-61
2024/03/03 02:18:38;;;;;;;0.13;0.07;;;11.00;99.90;;;;;;5033326;28;20232;-62
2024/03/03 02:21:06;;;;;;;0.00;0.00;;;11.00;99.90;;;;;;5033264;28;20274;-62
2024/03/03 02:23:34;;;;;;;0.00;0.00;;;10.80;99.90;;;;;;5032413;28;20288;-62
2024/03/03 02:26:01;;;;;;;0.10;0.10;;;10.90;99.90;;;;;;5023944;28;20223;-62
2024/03/03 02:28:29;;;;;;;0.50;0.10;;;10.80;99.90;;;;;;5050486;28;20226;-62
2024/03/03 02:30:56;;;;;;;0.10;0.10;;;10.90;99.90;;;;;;5052904;28;20198;-62
2024/03/03 02:33:23;;;;;;;0.10;0.10;;;10.80;99.90;;;;;;5053518;28;20201;-62
2024/03/03 02:35:50;;;;;;;0.00;0.00;;;10.80;99.90;;;;;;5044291;28;20350;-61
2024/03/03 02:38:17;;;;;;;1.37;0.00;;;10.90;99.90;;;;;;5024463;28;20225;-62
2024/03/03 02:40:45;;;;;;;0.57;0.10;;;10.90;99.90;;;;;;5023833;28;20681;-62
2024/03/03 02:43:12;;;;;;;0.03;0.03;;;10.90;99.90;;;;;;5032547;28;20259;-62
2024/03/03 02:45:39;;;;;;;1.37;0.10;;;11.00;99.90;;;;;;5031492;28;20611;-62
2024/03/03 02:48:07;;;;;;;0.40;0.10;;;11.00;99.90;;;;;;5031574;28;20663;-62
2024/03/03 02:50:34;;;;;;;0.73;0.07;;;11.10;99.90;;;;;;5032745;28;20662;-62
2024/03/03 02:53:01;;;;;;;0.20;0.20;;;11.20;99.90;;;;;;5032951;28;20569;-62
2024/03/03 02:55:28;;;;;;;1.53;0.20;;;11.40;99.90;;;;;;5031626;28;20273;-62
2024/03/03 02:57:57;;;;;;;0.10;0.10;;;11.50;99.90;;;;;;5032615;28;20209;-62
2024/03/03 03:00:24;;;;;;;0.10;0.10;;;11.60;99.90;;;;;;5031433;28;20583;-62
2024/03/03 03:02:51;;;;;;;0.60;0.10;;;11.60;99.90;;;;;;5032437;28;20226;-62
2024/03/03 03:05:18;;;;;;;0.07;0.07;;;11.50;99.90;;;;;;5031754;28;20283;-62
2024/03/03 03:07:46;;;;;;;0.10;0.10;;;11.40;99.90;;;;;;5031963;28;20678;-62
2024/03/03 03:10:14;;;;;;;0.50;0.00;;;11.40;99.90;;;;;;5032296;28;20269;-62
2024/03/03 03:12:42;;;;;;;0.10;0.10;;;11.50;99.90;;;;;;5031008;28;20621;-62
2024/03/03 03:15:10;;;;;;;0.57;0.20;;;11.60;99.90;;;;;;5031288;28;20673;-61
2024/03/03 03:17:39;;;;;;;1.87;0.10;;;11.60;99.90;;;;;;5032382;28;20213;-62
2024/03/03 03:20:07;;;;;;;0.20;0.20;;;11.70;99.90;;;;;;5031842;28;20221;-62
2024/03/03 03:22:34;;;;;;;0.20;0.10;;;11.80;99.90;;;;;;5031698;28;20218;-61
2024/03/03 03:25:01;;;;;;;0.20;0.10;;;11.90;99.90;;;;;;5030793;28;20213;-62
2024/03/03 03:27:28;;;;;;;0.77;0.10;;;11.90;99.90;;;;;;5031777;28;20197;-62
2024/03/03 03:29:55;;;;;;;0.40;0.20;;;12.00;99.90;;;;;;5031748;28;20228;-61
2024/03/03 03:32:23;;;;;;;0.27;0.10;;;12.00;99.90;;;;;;5031402;28;20617;-62
2024/03/03 03:34:50;;;;;;;1.30;0.10;;;12.00;99.90;;;;;;5030854;28;20201;-61
2024/03/03 03:37:17;;;;;;;0.27;0.20;;;;;;;;;;5031120;28;20228;-62
2024/03/03 03:39:44;;;;;;;0.00;0.00;;;11.90;99.90;;;;;;5030943;28;20232;-61
2024/03/03 03:42:11;;;;;;;0.10;0.10;;;11.90;99.90;;;;;;5031456;28;20616;-62
2024/03/03 03:44:38;;;;;;;0.10;0.10;;;11.90;99.90;;;;;;5030885;28;20205;-62
2024/03/03 03:47:05;;;;;;;0.30;0.30;;;12.00;99.90;;;;;;5031604;28;20600;-62
2024/03/03 03:49:34;;;;;;;0.47;0.10;;;12.00;99.90;;;;;;5029556;28;20267;-62
2024/03/03 03:52:03;;;;;;;1.00;0.10;;;12.00;99.90;;;;;;5031505;28;20608;-64
2024/03/03 03:54:31;;;;;;;4.40;1.57;;;11.90;99.90;;;;;;5028927;28;20362;-62
2024/03/03 03:56:58;;;;;;;0.33;0.10;;;12.00;99.90;;;;;;5031489;28;20288;-62
2024/03/03 03:59:25;;;;;;;0.10;0.10;;;12.00;99.90;;;;;;5031494;28;20222;-62
2024/03/03 04:01:53;;;;;;;1.27;0.10;;;12.00;99.90;;;;;;5031392;28;20205;-61
2024/03/03 04:04:21;;;;;;;0.47;0.10;;;12.10;99.90;;;;;;5031543;28;20205;-62
2024/03/03 04:06:50;;;;;;;0.27;0.10;;;12.00;99.90;;;;;;5031315;28;20665;-62
2024/03/03 04:09:17;;;;;;;0.30;0.10;;;12.00;99.90;;;;;;5031350;28;20262;-61
2024/03/03 04:11:44;;;;;;;1.13;0.00;;;11.90;99.90;;;;;;5030546;28;20288;-62
2024/03/03 04:14:11;;;;;;;0.10;0.10;;;11.90;99.90;;;;;;5031211;28;20795;-62
2024/03/03 04:16:38;;;;;;;0.20;0.10;;;12.00;99.90;;;;;;5030023;28;20221;-62
2024/03/03 04:19:05;;;;;;;0.10;0.10;;;12.00;99.90;;;;;;5031169;28;20218;-62
2024/03/03 04:21:32;;;;;;;0.00;0.00;;;11.90;99.90;;;;;;5031307;28;20668;-62
2024/03/03 04:24:00;;;;;;;0.43;0.40;;;;;;;;;;5031492;28;20201;-63
2024/03/03 04:26:27;;;;;;;0.50;0.13;;;11.90;99.90;;;;;;5029776;28;20268;-62
2024/03/03 04:28:53;;;;;;;0.17;0.00;;;11.90;99.90;;;;;;5030325;28;20233;-61
2024/03/03 04:31:20;;;;;;;0.73;0.10;;;11.90;99.90;;;;;;5031147;28;20666;-62
2024/03/03 04:33:48;;;;;;;0.10;0.10;;;11.80;99.90;;;;;;5030909;28;20259;-62
2024/03/03 04:36:15;;;;;;;1.23;0.10;;;11.60;99.90;;;;;;5046777;22;20268;-58
2024/03/03 04:38:43;;;;;;;0.10;0.10;;;11.70;99.90;;;;;;5070363;28;20262;-58
2024/03/03 04:41:16;;;;;;;1.10;0.20;;;11.80;99.90;;;;;;5074448;28;20801;-58
2024/03/03 04:43:43;;;;;;;0.10;0.10;;;11.80;99.90;;;;;;5074501;28;20200;-58
2024/03/03 04:46:10;;;;;;;0.07;0.00;;;12.10;99.90;;;;;;5072932;28;20614;-58
2024/03/03 04:48:37;;;;;;;0.60;0.10;;;11.80;99.90;;;;;;5054529;28;20202;-58
2024/03/03 04:51:06;;;;;;;0.10;0.10;;;11.80;99.90;;;;;;5054258;28;20208;-58
2024/03/03 04:53:33;;;;;;;0.07;0.00;;;11.80;99.90;;;;;;5054464;28;20675;-58
2024/03/03 04:56:00;;;;;;;0.40;0.10;;;11.80;99.90;;;;;;5053466;28;20263;-58
2024/03/03 04:58:29;;;;;;;0.53;0.10;;;11.80;99.90;;;;;;5054577;28;20631;-58
2024/03/03 05:00:56;;;;;;;2.40;0.07;;;11.80;99.90;;;;;;5054007;28;20727;-58
2024/03/03 05:03:24;;;;;;;0.00;0.00;;;11.80;99.90;;;;;;5054199;28;20204;-58
2024/03/03 05:05:51;;;;;;;0.23;0.10;;;11.70;99.90;;;;;;5045031;28;20261;-58
2024/03/03 05:08:18;;;;;;;0.40;0.10;;;11.60;99.90;;;;;;5049299;28;20644;-58
2024/03/03 05:10:45;;;;;;;0.00;0.00;;;11.40;99.90;;;;;;5051882;28;20254;-58
2024/03/03 05:13:12;;;;;;;1.13;0.10;;;11.50;99.90;;;;;;5034459;28;20201;-58
2024/03/03 05:15:40;;;;;;;0.10;0.10;;;11.40;99.90;;;;;;5033308;28;20616;-58
2024/03/03 05:18:07;;;;;;;0.10;0.10;;;11.30;99.90;;;;;;5040635;28;20233;-58
2024/03/03 05:20:34;;;;;;;0.00;0.00;;;11.40;99.90;;;;;;5054104;28;20253;-58
2024/03/03 05:23:01;;;;;;;0.10;0.10;;;11.50;99.90;;;;;;5053762;28;20746;-58
2024/03/03 05:25:28;;;;;;;0.23;0.10;;;11.50;99.90;;;;;;5053075;28;20271;-58
2024/03/03 05:27:55;;;;;;;0.03;0.03;;;11.50;99.90;;;;;;5053529;28;20274;-58
2024/03/03 05:30:22;;;;;;;0.00;0.00;;;11.40;99.90;;;;;;5053731;28;20262;-58
2024/03/03 05:32:51;;;;;;;0.10;0.10;;;11.50;99.90;;;;;;5045547;28;20624;-58
2024/03/03 05:35:18;;;;;;;0.20;0.10;;;11.50;99.90;;;;;;5044978;28;20311;-58
2024/03/03 05:37:45;;;;;;;0.40;0.20;;;11.50;99.90;;;;;;5052948;28;20235;-58
2024/03/03 05:40:13;;;;;;;0.00;0.00;;;11.60;99.90;;;;;;5050256;28;20265;-57
2024/03/03 05:42:40;;;;;;;0.10;0.10;;;11.60;99.90;;;;;;5053498;28;20258;-57
2024/03/03 05:45:09;;;;;;;0.10;0.10;;;11.50;99.90;;;;;;5051262;28;20260;-58
2024/03/03 05:47:35;;;;;;;0.70;0.10;;;11.50;99.90;;;;;;5049670;28;20224;-57
2024/03/03 05:50:04;;;;;;;1.87;0.40;;;11.60;99.90;;;;;;5050802;28;20726;-58
2024/03/03 05:52:31;;;;;;;0.93;0.60;;;11.50;99.90;;;;;;5052191;28;20201;-58
2024/03/03 05:54:58;;;;;;;0.10;0.10;;;11.60;99.90;;;;;;5047920;28;20198;-57
2024/03/03 05:57:25;;;;;;;0.10;0.10;;;11.60;99.90;;;;;;5053028;28;20630;-57
2024/03/03 05:59:52;;;;;;;0.90;0.10;;;11.60;99.90;;;;;;5048168;28;20231;-57
2024/03/03 06:02:21;;;;;;;0.27;0.20;;;11.60;99.90;;;;;;5040928;28;20205;-57
2024/03/03 06:04:48;;;;;;;0.20;0.20;;;11.50;99.90;;;;;;5046784;28;20230;-57
2024/03/03 06:07:17;;;;;;;0.77;0.20;;;11.60;99.90;;;;;;5052614;28;20217;-57
2024/03/03 06:09:44;;;;;;;1.40;0.00;;;11.60;99.90;;;;;;5052268;28;20292;-57
2024/03/03 06:12:11;;;;;;;1.50;0.10;;;11.50;99.90;;;;;;5052800;28;20606;-57
2024/03/03 06:14:38;;;;;;;0.77;0.10;;;11.60;99.90;;;;;;5043839;28;20206;-58
2024/03/03 06:17:05;;;;;;;0.10;0.10;;;11.50;99.90;;;;;;5052769;28;20280;-57
2024/03/03 06:19:32;;;;;;;0.10;0.10;;;11.50;99.90;;;;;;5052853;28;20258;-58
2024/03/03 06:21:59;;;;;;;0.57;0.10;;;11.50;99.90;;;;;;5052629;28;20639;-57
2024/03/03 06:24:27;;;;;;;0.20;0.20;;;11.40;99.90;;;;;;5051750;28;20258;-58
2024/03/03 06:26:54;;;;;;;0.10;0.10;;;11.40;99.90;;;;;;5052253;28;20220;-57
2024/03/03 06:29:21;;;;;;;0.57;0.10;;;11.50;99.90;;;;;;5051141;28;20265;-58
2024/03/03 06:31:49;;;;;;;0.10;0.10;;;11.40;99.90;;;;;;5052268;28;20259;-57
2024/03/03 06:34:16;;;;;;;0.30;0.10;;;11.40;99.90;;;;;;5048773;28;20292;-57
2024/03/03 06:36:43;;;;;;;0.30;0.20;;;11.50;99.90;;;;;;5051154;28;20232;-57
2024/03/03 06:39:12;;;;;;;0.20;0.20;;;11.60;99.90;;;;;;5052022;28;20634;-58
2024/03/03 06:41:44;;;;;;;0.20;0.10;;;11.60;99.90;;;;;;5052407;28;20211;-57
2024/03/03 06:44:16;;;;;;;1.43;1.33;;;11.60;99.90;;;;;;5052180;28;20237;-57
2024/03/03 06:46:43;;;;;;;0.30;0.30;;;11.50;99.90;;;;;;5050985;28;20302;-57
2024/03/03 06:49:10;;;;;;;0.27;0.27;;;11.50;99.90;;;;;;5052246;28;20223;-57
2024/03/03 06:51:37;;;;;;;0.40;0.40;;;11.50;99.90;;;;;;5051372;28;20196;-58
2024/03/03 06:54:04;;;;;;;0.30;0.30;;;11.40;99.90;;;;;;5049707;28;20444;-57
2024/03/03 06:56:32;;;;;;;0.27;0.27;;;11.30;99.90;;;;;;5047766;28;20259;-58
2024/03/03 06:59:01;;;;;;;0.40;0.40;;;11.40;99.90;;;;;;5050910;28;20623;-57
2024/03/03 07:01:30;;;;;;;0.37;0.37;;;11.40;99.90;;;;;;5050673;28;20311;-57
2024/03/03 07:04:13;;;;;;;0.40;0.30;;;11.50;99.90;;;;;;5051412;28;20680;-58
2024/03/03 07:06:41;;;;;;;0.60;0.60;;;11.60;99.90;;;;;;5050244;28;20313;-57
2024/03/03 07:09:09;;;;;;;1.70;0.87;;;11.60;99.90;;;;;;5051088;28;20202;-57
2024/03/03 07:11:36;;;;;;;3.73;3.33;;;11.50;99.90;;;;;;5051822;28;20299;-58
2024/03/03 07:14:05;;;;;;;1.00;1.00;;;;;;;;;;5051491;28;20206;-58
2024/03/03 07:16:32;;;;;;;1.93;1.73;;;11.70;99.90;;;;;;5050729;28;20263;-58
2024/03/03 07:18:59;;;;;;;0.50;0.50;;;11.70;99.90;;;;;;5050535;28;20243;-58
2024/03/03 07:21:26;;;;;;;0.77;0.43;;;11.70;99.90;;;;;;5050800;28;20232;-57
2024/03/03 07:23:53;;;;;;;0.20;0.10;;;10.40;99.90;;;;;;5050948;28;20207;-58
2024/03/03 07:26:20;;;;;;;0.30;0.30;;;11.70;99.90;;;;;;5047698;28;20197;-58
2024/03/03 07:28:47;;;;;;;0.97;0.30;;;11.90;99.90;;;;;;5051773;28;20647;-64
2024/03/03 07:31:15;;;;;;;0.70;0.40;;;11.90;99.90;;;;;;5051541;28;20281;-62
2024/03/03 07:33:42;;;;;;;0.20;0.20;;;11.90;99.90;;;;;;5051260;28;20205;-62
2024/03/03 07:36:09;;;;;;;0.20;0.20;;;11.90;99.90;;;;;;5050143;28;20263;-64
2024/03/03 07:38:36;;;;;;;1.10;0.10;;;12.00;99.90;;;;;;5050563;28;20664;-63
2024/03/03 07:41:03;;;;;;;0.17;0.10;;;12.20;99.90;;;;;;5048974;28;20207;-64
2024/03/03 07:43:31;;;;;;;0.30;0.30;;;12.30;99.90;;;;;;5051258;28;20623;-63
2024/03/03 07:45:58;;;;;;;0.30;0.30;;;12.40;99.90;;;;;;5050286;28;20231;-64
2024/03/03 07:48:26;;;;;;;0.20;0.20;;;12.50;99.90;;;;;;5051117;28;20715;-62
2024/03/03 07:50:54;;;;;;;0.20;0.17;;;12.50;99.90;;;;;;5049548;28;20266;-63
2024/03/03 07:53:21;;;;;;;0.20;0.20;;;12.60;99.90;;;;;;5042267;28;20599;-64
2024/03/03 07:55:48;;;;;;;1.57;0.20;;;12.60;99.90;;;;;;5049471;28;20266;-65
2024/03/03 07:58:16;;;;;;;1.27;0.27;;;12.60;99.90;;;;;;5049009;28;20227;-64
2024/03/03 08:00:44;;;;;;;3.03;1.73;;;12.60;99.90;;;;;;5050695;28;20208;-63
2024/03/03 08:03:11;;;;;;;0.13;0.13;;;12.60;99.90;;;;;;5049017;28;20219;-64
2024/03/03 08:05:39;;;;;;;0.50;0.20;;;12.60;99.90;;;;;;5050001;28;20585;-63
2024/03/03 08:08:07;;;;;;;0.20;0.20;;;12.60;99.90;;;;;;5050382;28;20243;-64
2024/03/03 08:10:34;;;;;;;0.10;0.10;;;12.70;99.90;;;;;;5050454;28;20607;-65
2024/03/03 08:13:01;;;;;;;0.20;0.10;;;12.80;99.90;;;;;;5041970;28;20676;-64
2024/03/03 08:15:28;;;;;;;0.10;0.10;;;12.90;99.90;;;;;;5044909;28;20662;-63
2024/03/03 08:17:56;;;;;;;0.10;0.10;;;12.90;99.90;;;;;;5054158;28;20223;-64
2024/03/03 08:20:23;;;;;;;1.03;0.20;;;13.00;99.90;;;;;;5046600;28;20251;-64
2024/03/03 08:22:52;;;;;;;2.43;0.20;;;13.10;99.90;;;;;;5050379;28;20213;-65
2024/03/03 08:25:20;;;;;;;3.50;0.97;;;13.20;99.90;;;;;;5041668;28;20682;-63
2024/03/03 08:27:47;;;;;;;0.20;0.20;;;13.30;99.90;;;;;;5044026;28;20723;-64
2024/03/03 08:30:14;;;;;;;0.10;0.10;;;13.40;99.90;;;;;;5054873;28;20239;-64
2024/03/03 08:32:42;;;;;;;1.90;0.20;;;13.40;99.90;;;;;;5047692;28;20240;-65
2024/03/03 08:35:09;;;;;;;1.17;0.20;;;13.50;99.90;;;;;;5046848;28;20637;-65
2024/03/03 08:37:43;;;;;;;0.20;0.20;;;13.60;99.90;;;;;;5051871;28;20221;-63
2024/03/03 08:40:12;;;;;;;0.67;0.20;;;13.60;99.90;;;;;;5045500;28;20202;-64
2024/03/03 08:42:39;;;;;;;0.67;0.20;;;13.60;99.90;;;;;;5045681;28;20228;-64
2024/03/03 08:45:07;;;;;;;0.23;0.20;;;13.60;99.90;;;;;;5042906;28;20691;-65
2024/03/03 08:47:36;;;;;;;1.10;0.13;;;13.80;99.90;;;;;;5041865;28;20275;-64
2024/03/03 08:50:04;;;;;;;1.60;0.20;;;13.70;99.90;;;;;;5045574;28;20202;-64
2024/03/03 08:52:31;;;;;;;0.60;0.40;;;13.70;99.90;;;;;;5054418;28;20291;-63
2024/03/03 08:54:58;;;;;;;0.50;0.13;;;13.70;99.90;;;;;;5044821;28;20208;-64
2024/03/03 08:57:26;;;;;;;0.10;0.10;;;13.70;99.90;;;;;;5047053;28;20761;-65
2024/03/03 08:59:53;;;;;;;0.20;0.20;;;13.70;99.90;;;;;;5046986;28;20201;-66
2024/03/03 09:02:21;;;;;;;0.20;0.13;;;13.70;99.90;;;;;;5052255;28;20196;-64
2024/03/03 09:04:48;;;;;;;0.43;0.10;;;13.70;99.90;;;;;;5049616;28;20202;-64
2024/03/03 09:07:15;;;;;;;0.20;0.20;;;13.60;99.90;;;;;;5044684;28;20216;-64
2024/03/03 09:09:42;;;;;;;0.43;0.20;;;13.60;99.90;;;;;;5046987;28;20204;-63
2024/03/03 09:12:09;;;;;;;0.20;0.20;;;13.60;99.90;;;;;;5051225;28;20201;-64
2024/03/03 09:14:38;;;;;;;0.63;0.10;;;13.60;99.90;;;;;;5040110;28;20203;-63
2024/03/03 09:17:05;;;;;;;0.10;0.10;;;13.50;99.90;;;;;;5046699;28;20222;-63
2024/03/03 09:19:32;;;;;;;1.60;0.10;;;13.60;99.90;;;;;;5047285;28;20267;-64
2024/03/03 09:21:59;;;;;;;1.20;0.20;;;13.60;99.90;;;;;;5043637;28;20206;-64
2024/03/03 09:24:26;;;;;;;0.10;0.10;;;13.50;99.90;;;;;;5044109;28;20267;-61
2024/03/03 09:26:53;;;;;;;0.10;0.10;;;13.60;99.90;;;;;;5047966;28;20311;-59
2024/03/03 09:29:20;;;;;;;0.50;0.20;;;13.50;99.90;;;;;;5044530;28;20197;-58
2024/03/03 09:31:49;;;;;;;0.90;0.30;;;13.60;99.90;;;;;;5051478;28;20208;-59
2024/03/03 09:34:16;;;;;;;3.10;0.13;;;13.60;99.90;;;;;;5052099;28;20686;-58
2024/03/03 09:36:43;;;;;;;0.10;0.10;;;13.60;99.90;;;;;;5050641;28;20702;-58
2024/03/03 09:39:10;;;;;;;0.20;0.17;;;13.50;99.90;;;;;;5049899;28;20788;-59
2024/03/03 09:41:37;;;;;;;2.87;0.83;;;13.60;99.90;;;;;;5050522;28;20229;-57
2024/03/03 09:44:09;;;;;;;1.80;0.10;;;;;;;;;;5041660;28;20238;-58
2024/03/03 09:46:38;;;;;;;0.20;0.10;;;13.60;99.90;;;;;;5046946;28;20257;-57
2024/03/03 09:49:12;;;;;;;2.00;0.20;;;13.60;99.90;;;;;;5039174;28;20625;-58
2024/03/03 09:51:41;;;;;;;2.33;0.20;;;13.60;99.90;;;;;;5044588;28;20198;-57
2024/03/03 09:54:12;;;;;;;2.43;0.10;;;13.70;99.90;;;;;;5045744;28;20677;-57
2024/03/03 09:56:43;;;;;;;0.17;0.17;;;13.70;99.90;;;;;;5049250;28;20252;-58
2024/03/03 09:59:11;;;;;;;3.23;0.40;;;13.80;99.90;;;;;;5039311;28;20222;-57
2024/03/03 10:01:39;;;;;;;1.17;0.20;;;13.90;99.90;;;;;;5048732;28;20329;-58
2024/03/03 10:04:08;;;;;;;3.33;1.70;;;13.90;99.90;;;;;;5047547;28;20322;-57
2024/03/03 10:06:39;;;;;;;0.50;0.50;;;13.90;99.90;;;;;;5048487;28;20221;-60
2024/03/03 10:09:09;;;;;;;1.60;0.20;;;;;;;;;;5048159;28;20204;-60
2024/03/03 10:11:37;;;;;;;0.20;0.20;;;13.90;99.90;;;;;;5045910;28;20205;-60
2024/03/03 10:14:04;;;;;;;2.43;0.53;;;14.00;99.90;;;;;;5040129;28;20211;-57
2024/03/03 10:16:33;;;;;;;0.30;0.20;;;14.00;99.90;;;;;;5044366;28;20270;-65
2024/03/03 10:19:01;;;;;;;0.30;0.30;;;14.00;99.90;;;;;;5041647;28;20229;-66
2024/03/03 10:21:34;;;;;;;0.20;0.20;;;14.00;99.90;;;;;;5043603;28;20206;-67
2024/03/03 10:24:19;;;;;;;1.17;0.20;;;14.10;99.90;;;;;;5040845;28;20292;-65
2024/03/03 10:26:46;;;;;;;0.70;0.10;;;13.90;99.90;;;;;;5040672;28;20650;-64
2024/03/03 10:29:13;;;;;;;0.73;0.27;;;14.20;99.90;;;;;;5041357;28;20210;-66
2024/03/03 10:31:42;;;;;;;0.40;0.20;;;14.10;99.90;;;;;;5043426;28;20692;-67
2024/03/03 10:34:09;;;;;;;0.83;0.20;;;14.50;99.90;;;;;;5045094;28;20305;-66
2024/03/03 10:36:38;;;;;;;2.30;0.20;;;14.30;99.90;;;;;;5044190;28;20326;-62
2024/03/03 10:39:05;;;;;;;0.40;0.20;;;14.40;99.90;;;;;;5044801;28;20217;-61
2024/03/03 10:41:32;;;;;;;0.30;0.10;;;14.50;99.90;;;;;;5048208;28;20229;-60
2024/03/03 10:44:01;;;;;;;2.00;0.10;;;14.60;99.90;;;;;;5047586;28;20252;-62
2024/03/03 10:46:28;;;;;;;0.40;0.20;;;14.70;99.90;;;;;;5050040;28;20220;-64
2024/03/03 10:48:56;;;;;;;2.10;0.20;;;;;;;;;;5049215;28;20205;-61
2024/03/03 10:51:23;;;;;;;1.03;0.20;;;14.90;99.90;;;;;;5048744;28;20248;-64
2024/03/03 10:53:52;;;;;;;2.40;0.33;;;15.00;99.90;;;;;;5050372;28;20204;-63
2024/03/03 10:56:20;;;;;;;0.30;0.20;;;15.10;99.90;;;;;;5050825;28;20202;-64
2024/03/03 10:58:49;;;;;;;0.87;0.40;;;15.10;99.90;;;;;;5048969;28;20221;-63
2024/03/03 11:01:16;;;;;;;1.07;0.40;;;15.10;99.90;;;;;;5052101;28;20274;-62
2024/03/03 11:03:45;;;;;;;1.37;0.17;;;15.10;99.90;;;;;;5051730;28;20213;-62
2024/03/03 11:06:13;;;;;;;0.20;0.20;;;15.10;99.90;;;;;;5049465;28;20225;-57
2024/03/03 11:08:40;;;;;;;0.83;0.10;;;15.10;99.90;;;;;;5050421;28;20193;-57
2024/03/03 11:11:10;;;;;;;0.20;0.20;;;15.20;99.90;;;;;;5032544;28;20243;-60
2024/03/03 11:13:42;;;;;;;0.17;0.10;;;15.20;99.90;;;;;;5033207;28;20223;-61
2024/03/03 11:16:12;;;;;;;0.10;0.10;;;15.30;99.90;;;;;;5046125;28;20259;-61
2024/03/03 11:18:45;;;;;;;0.10;0.10;;;15.40;99.90;;;;;;5049167;28;20218;-58
2024/03/03 11:21:20;;;;;;;1.27;0.00;;;15.50;99.90;;;;;;5051294;28;20209;-58
2024/03/03 11:23:50;;;;;;;1.07;0.30;;;15.60;99.90;;;;;;5050081;28;20206;-59
2024/03/03 11:26:20;;;;;;;0.60;0.20;;;;;;;;;;5038534;28;20210;-58
2024/03/03 11:28:53;;;;;;;3.37;0.30;;;15.70;99.90;;;;;;5039867;28;20209;-59
2024/03/03 11:31:20;;;;;;;0.90;0.60;;;15.80;99.90;;;;;;5051341;28;20197;-58
2024/03/03 11:33:48;;;;;;;0.97;0.30;;;15.80;99.90;;;;;;5081113;22;20228;-62
2024/03/03 11:36:15;;;;;;;0.30;0.20;;;15.80;99.90;;;;;;5070580;28;20545;-62
2024/03/03 11:38:43;;;;;;;0.27;0.20;;;15.70;99.90;;;;;;5070669;28;20267;-62
2024/03/03 11:41:11;;;;;;;0.17;0.17;;;15.70;99.30;;;;;;5071715;28;20616;-62
2024/03/03 11:43:40;;;;;;;0.93;0.20;;;15.70;99.20;;;;;;5078638;28;20219;-62
2024/03/03 11:46:08;;;;;;;0.17;0.17;;;15.70;99.70;;;;;;5073750;28;20225;-65
2024/03/03 11:48:35;;;;;;;2.37;0.30;;;15.90;99.90;;;;;;5065914;28;20197;-69
2024/03/03 11:51:27;;;;;;;0.43;0.10;;;16.50;99.90;;;;;;5070381;28;20677;-69
2024/03/03 11:54:00;;;;;;;1.73;0.20;;;16.40;99.90;;;;;;5051799;28;20229;-69
2024/03/03 11:56:30;;;;;;;3.90;0.20;;;16.50;98.50;;;;;;5058676;28;20201;-68
2024/03/03 11:59:00;;;;;;;1.70;0.37;;;16.60;99.90;;;;;;5062364;28;20221;-68
2024/03/03 12:01:30;;;;;;;0.47;0.40;;;16.60;98.70;;;;;;5055251;28;20661;-67
2024/03/03 12:03:59;;;;;;;0.20;0.20;;;16.50;98.70;;;;;;5066229;28;20283;-67
2024/03/03 12:06:28;;;;;;;2.43;0.40;;;16.80;98.60;;;;;;5070017;28;20204;-68
2024/03/03 12:09:00;;;;;;;0.20;0.10;;;16.90;99.90;;;;;;5069124;28;20219;-66
2024/03/03 12:11:27;;;;;;;0.80;0.30;;;16.90;97.70;;;;;;5069966;28;20197;-66
2024/03/03 12:13:59;;;;;;;1.07;0.20;;;16.90;97.60;;;;;;5066235;28;20220;-67
2024/03/03 12:16:26;;;;;;;2.67;0.30;;;16.80;97.70;;;;;;5059249;28;20205;-67
2024/03/03 12:18:53;;;;;;;1.43;0.40;;;16.80;98.40;;;;;;5070026;28;20290;-68
2024/03/03 12:21:20;;;;;;;0.63;0.20;;;16.70;97.10;;;;;;5069587;28;20700;-67
2024/03/03 12:23:48;;;;;;;1.37;0.30;;;16.70;98.30;;;;;;5068959;28;20608;-67
2024/03/03 12:26:15;;;;;;;0.13;0.10;;;16.60;96.30;;;;;;5069511;28;20193;-65
2024/03/03 12:28:42;;;;;;;0.67;0.20;;;16.60;96.40;;;;;;5069654;28;20243;-67
2024/03/03 12:31:11;;;;;;;6.00;0.30;;;16.50;96.70;;;;;;5069656;28;20299;-70
2024/03/03 12:33:40;;;;;;;0.20;0.20;;;16.60;99.90;;;;;;5068993;28;20225;-69
2024/03/03 12:36:08;;;;;;;1.10;0.27;;;16.60;99.30;;;;;;5068908;28;20750;-66
2024/03/03 12:38:35;;;;;;;1.90;0.40;;;16.60;97.60;;;;;;5070108;28;20217;-65
2024/03/03 12:41:05;;;;;;;2.73;0.20;;;16.30;98.30;;;;;;5069874;28;20224;-67
2024/03/03 12:43:33;;;;;;;0.47;0.20;;;16.00;97.00;;;;;;5069950;28;20712;-70
2024/03/03 12:46:00;;;;;;;1.60;0.20;;;15.70;97.60;;;;;;5065315;28;20205;-67
2024/03/03 12:48:29;;;;;;;1.97;0.50;;;15.50;96.20;;;;;;5073567;28;20224;-67
2024/03/03 12:50:58;;;;;;;0.77;0.30;;;15.40;97.60;;;;;;5071447;28;20208;-68